Hanley Hills, Missouri
Current Conditions -  °F | °C
As of 1:51 PM on Thursday 23 Oct 2014 (Local Time) from KSTL Reporting Station
Broken Clouds Broken Clouds  
Wind Chill: 64°   Ceiling: 20000
Heat Index: 64°   Visibility: 10mi
Dew Point: 44°   Wind: 10mph
Humidity: 48%   Direction: 140°SE
Pressure: 30.15"   Gusts: NA
Location:  38.6807°N, 90.3068°W
Report Text: KSTL 231851Z 14009KT 10SM FEW070 SCT140 BKN200 18/07 A3015 RMK AO2 SLP208 T01780067
Loading
Personal Weather Stations






























Interactive Weather Map
Tropical Storm Tracking
New forecast layout! Learn more

10-Day Weather Forecast

Advertisements
Track Severe Weather on mobile